Terminal Aerodrome Forecast
Issued by NWS

Home | Current Version | Previous Version | Text Only | Print | Product List | Glossary Off
Versions: 1 2 3 4 5 6 7 8 9 10 11 12 13 14 15 16 17 18 19 20 21 22 23

000
FTUS42 KTBW 041123
TAFPIE
TAF
KPIE 041123Z 0412/0512 19006KT P6SM SCT120 BKN250
     FM041600 25009KT P6SM VCTS SCT035CB BKN250
     FM042100 27007KT P6SM FEW040 BKN250
     FM050400 VRB03KT P6SM SCT250=

USA.gov is the U.S. government's official web portal to all federal, state and local government web resources and services.